sensor_id;sensor_type;location;lat;lon;timestamp;temperature;humidity
5459;DHT22;2752;49.992;8.422;2023-07-20T00:00:59;20.00;1.00
5459;DHT22;2752;49.992;8.422;2023-07-20T00:03:25;19.90;1.00
5459;DHT22;2752;49.992;8.422;2023-07-20T00:05:52;19.90;1.00
5459;DHT22;2752;49.992;8.422;2023-07-20T00:08:19;19.80;1.00
5459;DHT22;2752;49.992;8.422;2023-07-20T00:10:45;19.80;1.00
5459;DHT22;2752;49.992;8.422;2023-07-20T00:13:12;19.80;1.00
5459;DHT22;2752;49.992;8.422;2023-07-20T00:15:41;19.60;1.00
5459;DHT22;2752;49.992;8.422;2023-07-20T00:18:09;19.60;1.00
5459;DHT22;2752;49.992;8.422;2023-07-20T00:20:36;19.40;1.00
5459;DHT22;2752;49.992;8.422;2023-07-20T00:23:02;19.40;1.00
5459;DHT22;2752;49.992;8.422;2023-07-20T00:25:29;19.30;1.00
5459;DHT22;2752;49.992;8.422;2023-07-20T00:27:55;19.30;1.00
5459;DHT22;2752;49.992;8.422;2023-07-20T00:30:22;19.30;1.00
5459;DHT22;2752;49.992;8.422;2023-07-20T00:32:49;19.20;1.00
5459;DHT22;2752;49.992;8.422;2023-07-20T00:35:17;19.20;1.00
5459;DHT22;2752;49.992;8.422;2023-07-20T00:37:43;19.10;1.00
5459;DHT22;2752;49.992;8.422;2023-07-20T00:40:10;19.10;1.00
5459;DHT22;2752;49.992;8.422;2023-07-20T00:42:37;19.00;1.00
5459;DHT22;2752;49.992;8.422;2023-07-20T00:45:06;19.00;1.00
5459;DHT22;2752;49.992;8.422;2023-07-20T00:47:32;19.00;1.00
5459;DHT22;2752;49.992;8.422;2023-07-20T00:49:59;19.00;1.00
5459;DHT22;2752;49.992;8.422;2023-07-20T00:52:27;18.90;1.00
5459;DHT22;2752;49.992;8.422;2023-07-20T00:54:55;18.80;1.00
5459;DHT22;2752;49.992;8.422;2023-07-20T00:57:22;18.90;1.00
5459;DHT22;2752;49.992;8.422;2023-07-20T00:59:50;19.00;1.00
5459;DHT22;2752;49.992;8.422;2023-07-20T01:02:17;19.10;1.00
5459;DHT22;2752;49.992;8.422;2023-07-20T01:04:43;19.10;1.00
5459;DHT22;2752;49.992;8.422;2023-07-20T01:07:14;19.20;1.00
5459;DHT22;2752;49.992;8.422;2023-07-20T01:09:52;19.10;1.00
5459;DHT22;2752;49.992;8.422;2023-07-20T01:12:27;19.10;1.00
5459;DHT22;2752;49.992;8.422;2023-07-20T01:14:55;19.10;1.00
5459;DHT22;2752;49.992;8.422;2023-07-20T01:17:22;19.10;1.00
5459;DHT22;2752;49.992;8.422;2023-07-20T01:19:49;19.00;1.00
5459;DHT22;2752;49.992;8.422;2023-07-20T01:22:35;19.00;1.00
5459;DHT22;2752;49.992;8.422;2023-07-20T01:25:26;19.00;1.00
5459;DHT22;2752;49.992;8.422;2023-07-20T01:28:15;18.90;1.00
5459;DHT22;2752;49.992;8.422;2023-07-20T01:30:56;18.80;1.00
5459;DHT22;2752;49.992;8.422;2023-07-20T01:33:26;18.80;1.00
5459;DHT22;2752;49.992;8.422;2023-07-20T01:35:55;18.90;1.00
5459;DHT22;2752;49.992;8.422;2023-07-20T01:38:24;18.80;1.00
5459;DHT22;2752;49.992;8.422;2023-07-20T01:40:51;18.60;1.00
5459;DHT22;2752;49.992;8.422;2023-07-20T01:43:18;18.40;1.00
5459;DHT22;2752;49.992;8.422;2023-07-20T01:45:45;18.30;1.00
5459;DHT22;2752;49.992;8.422;2023-07-20T01:48:11;18.30;1.00
5459;DHT22;2752;49.992;8.422;2023-07-20T01:50:39;18.20;1.00
5459;DHT22;2752;49.992;8.422;2023-07-20T01:53:06;18.20;1.00
5459;DHT22;2752;49.992;8.422;2023-07-20T01:55:33;18.00;1.00
5459;DHT22;2752;49.992;8.422;2023-07-20T01:57:59;18.10;1.00
5459;DHT22;2752;49.992;8.422;2023-07-20T02:00:27;17.90;1.00
5459;DHT22;2752;49.992;8.422;2023-07-20T02:02:53;17.80;1.00
5459;DHT22;2752;49.992;8.422;2023-07-20T02:05:20;17.70;1.00
5459;DHT22;2752;49.992;8.422;2023-07-20T02:07:48;17.60;1.00
5459;DHT22;2752;49.992;8.422;2023-07-20T02:10:15;17.60;1.00
5459;DHT22;2752;49.992;8.422;2023-07-20T02:12:42;17.50;1.00
5459;DHT22;2752;49.992;8.422;2023-07-20T02:15:10;17.40;1.00
5459;DHT22;2752;49.992;8.422;2023-07-20T02:17:38;17.50;1.00
5459;DHT22;2752;49.992;8.422;2023-07-20T02:20:07;17.40;1.00
5459;DHT22;2752;49.992;8.422;2023-07-20T02:22:35;17.30;1.00
5459;DHT22;2752;49.992;8.422;2023-07-20T02:25:04;17.20;1.00
5459;DHT22;2752;49.992;8.422;2023-07-20T02:27:31;17.10;1.00
5459;DHT22;2752;49.992;8.422;2023-07-20T02:29:57;17.10;1.00
5459;DHT22;2752;49.992;8.422;2023-07-20T02:32:24;17.10;1.00
5459;DHT22;2752;49.992;8.422;2023-07-20T02:34:51;17.10;1.00
5459;DHT22;2752;49.992;8.422;2023-07-20T02:37:18;17.00;1.00
5459;DHT22;2752;49.992;8.422;2023-07-20T02:39:44;17.00;1.00
5459;DHT22;2752;49.992;8.422;2023-07-20T02:42:12;16.90;1.00
5459;DHT22;2752;49.992;8.422;2023-07-20T02:44:40;16.80;1.00
5459;DHT22;2752;49.992;8.422;2023-07-20T02:47:06;16.80;1.00
5459;DHT22;2752;49.992;8.422;2023-07-20T02:49:33;16.70;1.00
5459;DHT22;2752;49.992;8.422;2023-07-20T02:52:00;16.60;1.00
5459;DHT22;2752;49.992;8.422;2023-07-20T02:54:26;16.70;1.00
5459;DHT22;2752;49.992;8.422;2023-07-20T02:56:53;16.60;1.00
5459;DHT22;2752;49.992;8.422;2023-07-20T02:59:21;16.50;1.00
5459;DHT22;2752;49.992;8.422;2023-07-20T03:01:48;16.50;1.00
5459;DHT22;2752;49.992;8.422;2023-07-20T03:04:15;16.40;1.00
5459;DHT22;2752;49.992;8.422;2023-07-20T03:06:41;16.40;1.00
5459;DHT22;2752;49.992;8.422;2023-07-20T03:09:08;16.30;1.00
5459;DHT22;2752;49.992;8.422;2023-07-20T03:11:35;16.50;1.00
5459;DHT22;2752;49.992;8.422;2023-07-20T03:14:02;16.40;1.00
5459;DHT22;2752;49.992;8.422;2023-07-20T03:16:30;16.40;1.00
5459;DHT22;2752;49.992;8.422;2023-07-20T03:18:58;16.30;1.00
5459;DHT22;2752;49.992;8.422;2023-07-20T03:21:25;16.30;1.00
5459;DHT22;2752;49.992;8.422;2023-07-20T03:23:51;16.30;1.00
5459;DHT22;2752;49.992;8.422;2023-07-20T03:26:18;16.30;1.00
5459;DHT22;2752;49.992;8.422;2023-07-20T03:28:45;16.20;1.00
5459;DHT22;2752;49.992;8.422;2023-07-20T03:31:12;16.20;1.00
5459;DHT22;2752;49.992;8.422;2023-07-20T03:33:41;16.20;1.00
5459;DHT22;2752;49.992;8.422;2023-07-20T03:36:08;16.10;1.00
5459;DHT22;2752;49.992;8.422;2023-07-20T03:38:36;16.10;1.00
5459;DHT22;2752;49.992;8.422;2023-07-20T03:41:02;16.10;1.00
5459;DHT22;2752;49.992;8.422;2023-07-20T03:43:29;16.10;1.00
5459;DHT22;2752;49.992;8.422;2023-07-20T03:45:55;16.10;1.00
5459;DHT22;2752;49.992;8.422;2023-07-20T03:48:24;16.10;1.00
5459;DHT22;2752;49.992;8.422;2023-07-20T03:50:53;16.10;1.00
5459;DHT22;2752;49.992;8.422;2023-07-20T03:53:20;16.00;1.00
5459;DHT22;2752;49.992;8.422;2023-07-20T03:55:47;16.10;1.00
5459;DHT22;2752;49.992;8.422;2023-07-20T03:58:14;16.10;1.00
5459;DHT22;2752;49.992;8.422;2023-07-20T04:00:44;16.00;1.00
5459;DHT22;2752;49.992;8.422;2023-07-20T04:03:11;16.10;1.00
5459;DHT22;2752;49.992;8.422;2023-07-20T04:05:38;16.00;1.00
5459;DHT22;2752;49.992;8.422;2023-07-20T04:08:06;16.00;1.00
5459;DHT22;2752;49.992;8.422;2023-07-20T04:10:33;16.10;1.00
5459;DHT22;2752;49.992;8.422;2023-07-20T04:13:00;16.00;1.00
5459;DHT22;2752;49.992;8.422;2023-07-20T04:15:27;16.10;1.00
5459;DHT22;2752;49.992;8.422;2023-07-20T04:17:53;16.10;1.00
5459;DHT22;2752;49.992;8.422;2023-07-20T04:20:21;16.10;1.00
5459;DHT22;2752;49.992;8.422;2023-07-20T04:22:48;16.10;1.00
5459;DHT22;2752;49.992;8.422;2023-07-20T04:25:16;16.10;1.00
5459;DHT22;2752;49.992;8.422;2023-07-20T04:27:43;16.10;1.00
5459;DHT22;2752;49.992;8.422;2023-07-20T04:30:11;16.10;1.00
5459;DHT22;2752;49.992;8.422;2023-07-20T04:32:38;16.20;1.00
5459;DHT22;2752;49.992;8.422;2023-07-20T04:35:09;16.20;1.00
5459;DHT22;2752;49.992;8.422;2023-07-20T04:37:36;16.20;1.00
5459;DHT22;2752;49.992;8.422;2023-07-20T04:40:05;16.30;1.00
5459;DHT22;2752;49.992;8.422;2023-07-20T04:42:33;16.40;1.00
5459;DHT22;2752;49.992;8.422;2023-07-20T04:45:00;16.50;1.00
5459;DHT22;2752;49.992;8.422;2023-07-20T04:47:26;16.50;1.00
5459;DHT22;2752;49.992;8.422;2023-07-20T04:49:53;16.60;1.00
5459;DHT22;2752;49.992;8.422;2023-07-20T04:52:20;16.70;1.00
5459;DHT22;2752;49.992;8.422;2023-07-20T04:54:46;16.80;1.00
5459;DHT22;2752;49.992;8.422;2023-07-20T04:57:13;16.90;1.00
5459;DHT22;2752;49.992;8.422;2023-07-20T04:59:41;16.90;1.00
5459;DHT22;2752;49.992;8.422;2023-07-20T05:02:08;17.00;1.00
5459;DHT22;2752;49.992;8.422;2023-07-20T05:04:34;17.10;1.00
5459;DHT22;2752;49.992;8.422;2023-07-20T05:07:01;17.20;1.00
5459;DHT22;2752;49.992;8.422;2023-07-20T05:09:28;17.40;1.00
5459;DHT22;2752;49.992;8.422;2023-07-20T05:11:54;17.50;1.00
5459;DHT22;2752;49.992;8.422;2023-07-20T05:14:21;17.70;1.00
5459;DHT22;2752;49.992;8.422;2023-07-20T05:16:49;17.90;1.00
5459;DHT22;2752;49.992;8.422;2023-07-20T05:19:16;18.00;1.00
5459;DHT22;2752;49.992;8.422;2023-07-20T05:21:42;18.20;1.00
5459;DHT22;2752;49.992;8.422;2023-07-20T05:24:09;18.20;1.00
5459;DHT22;2752;49.992;8.422;2023-07-20T05:26:36;18.30;1.00
5459;DHT22;2752;49.992;8.422;2023-07-20T05:29:03;18.40;1.00
5459;DHT22;2752;49.992;8.422;2023-07-20T05:31:30;18.50;1.00
5459;DHT22;2752;49.992;8.422;2023-07-20T05:33:58;18.60;1.00
5459;DHT22;2752;49.992;8.422;2023-07-20T05:36:25;18.70;1.00
5459;DHT22;2752;49.992;8.422;2023-07-20T05:38:52;18.80;1.00
5459;DHT22;2752;49.992;8.422;2023-07-20T05:41:18;18.90;1.00
5459;DHT22;2752;49.992;8.422;2023-07-20T05:43:45;19.00;1.00
5459;DHT22;2752;49.992;8.422;2023-07-20T05:46:12;19.00;1.00
5459;DHT22;2752;49.992;8.422;2023-07-20T05:48:38;19.20;1.00
5459;DHT22;2752;49.992;8.422;2023-07-20T05:51:06;19.30;1.00
5459;DHT22;2752;49.992;8.422;2023-07-20T05:53:33;19.40;1.00
5459;DHT22;2752;49.992;8.422;2023-07-20T05:55:59;19.50;1.00
5459;DHT22;2752;49.992;8.422;2023-07-20T05:58:26;19.50;1.00
5459;DHT22;2752;49.992;8.422;2023-07-20T06:00:53;19.50;1.00
5459;DHT22;2752;49.992;8.422;2023-07-20T06:03:20;19.50;1.00
5459;DHT22;2752;49.992;8.422;2023-07-20T06:05:47;19.50;1.00
5459;DHT22;2752;49.992;8.422;2023-07-20T06:08:15;19.70;1.00
5459;DHT22;2752;49.992;8.422;2023-07-20T06:10:42;19.70;1.00
5459;DHT22;2752;49.992;8.422;2023-07-20T06:13:08;19.80;1.00
5459;DHT22;2752;49.992;8.422;2023-07-20T06:15:35;19.80;1.00
5459;DHT22;2752;49.992;8.422;2023-07-20T06:18:02;19.70;1.00
5459;DHT22;2752;49.992;8.422;2023-07-20T06:20:29;19.80;1.00
5459;DHT22;2752;49.992;8.422;2023-07-20T06:22:56;19.90;1.00
5459;DHT22;2752;49.992;8.422;2023-07-20T06:25:24;19.70;1.00
5459;DHT22;2752;49.992;8.422;2023-07-20T06:27:50;20.00;1.00
5459;DHT22;2752;49.992;8.422;2023-07-20T06:30:17;20.20;1.00
5459;DHT22;2752;49.992;8.422;2023-07-20T06:32:44;20.30;1.00
5459;DHT22;2752;49.992;8.422;2023-07-20T06:35:11;20.30;1.00
5459;DHT22;2752;49.992;8.422;2023-07-20T06:37:37;20.30;1.00
5459;DHT22;2752;49.992;8.422;2023-07-20T06:40:05;20.20;1.00
5459;DHT22;2752;49.992;8.422;2023-07-20T06:42:35;20.20;1.00
5459;DHT22;2752;49.992;8.422;2023-07-20T06:45:02;20.10;1.00
5459;DHT22;2752;49.992;8.422;2023-07-20T06:47:29;20.00;1.00
5459;DHT22;2752;49.992;8.422;2023-07-20T06:49:56;19.90;1.00
5459;DHT22;2752;49.992;8.422;2023-07-20T06:52:23;19.90;1.00
5459;DHT22;2752;49.992;8.422;2023-07-20T06:54:49;19.90;1.00
5459;DHT22;2752;49.992;8.422;2023-07-20T06:57:16;20.00;1.00
5459;DHT22;2752;49.992;8.422;2023-07-20T06:59:44;20.10;1.00
5459;DHT22;2752;49.992;8.422;2023-07-20T07:02:11;20.10;1.00
5459;DHT22;2752;49.992;8.422;2023-07-20T07:04:37;20.30;1.00
5459;DHT22;2752;49.992;8.422;2023-07-20T07:07:04;20.30;1.00
5459;DHT22;2752;49.992;8.422;2023-07-20T07:09:31;20.40;1.00
5459;DHT22;2752;49.992;8.422;2023-07-20T07:11:58;20.60;1.00
5459;DHT22;2752;49.992;8.422;2023-07-20T07:14:24;20.60;1.00
5459;DHT22;2752;49.992;8.422;2023-07-20T07:16:52;20.60;1.00
5459;DHT22;2752;49.992;8.422;2023-07-20T07:19:19;20.60;1.00
5459;DHT22;2752;49.992;8.422;2023-07-20T07:21:46;20.60;1.00
5459;DHT22;2752;49.992;8.422;2023-07-20T07:24:13;20.60;1.00
5459;DHT22;2752;49.992;8.422;2023-07-20T07:26:39;20.60;1.00
5459;DHT22;2752;49.992;8.422;2023-07-20T07:29:06;20.80;1.00
5459;DHT22;2752;49.992;8.422;2023-07-20T07:31:34;20.80;1.00
5459;DHT22;2752;49.992;8.422;2023-07-20T07:34:03;20.90;1.00
5459;DHT22;2752;49.992;8.422;2023-07-20T07:36:30;21.00;1.00
5459;DHT22;2752;49.992;8.422;2023-07-20T07:38:56;21.10;1.00
5459;DHT22;2752;49.992;8.422;2023-07-20T07:41:23;21.40;1.00
5459;DHT22;2752;49.992;8.422;2023-07-20T07:43:50;21.60;1.00
5459;DHT22;2752;49.992;8.422;2023-07-20T07:46:16;21.70;1.00
5459;DHT22;2752;49.992;8.422;2023-07-20T07:48:43;21.70;1.00
5459;DHT22;2752;49.992;8.422;2023-07-20T07:51:11;22.00;1.00
5459;DHT22;2752;49.992;8.422;2023-07-20T07:53:38;22.00;1.00
5459;DHT22;2752;49.992;8.422;2023-07-20T07:56:07;21.90;1.00
5459;DHT22;2752;49.992;8.422;2023-07-20T07:58:33;22.00;1.00
5459;DHT22;2752;49.992;8.422;2023-07-20T08:01:00;21.90;1.00
5459;DHT22;2752;49.992;8.422;2023-07-20T08:03:27;22.00;1.00
5459;DHT22;2752;49.992;8.422;2023-07-20T08:05:54;22.10;1.00
5459;DHT22;2752;49.992;8.422;2023-07-20T08:08:23;22.30;1.00
5459;DHT22;2752;49.992;8.422;2023-07-20T08:10:52;22.20;1.00
5459;DHT22;2752;49.992;8.422;2023-07-20T08:13:19;22.20;1.00
5459;DHT22;2752;49.992;8.422;2023-07-20T08:15:49;22.20;1.00
5459;DHT22;2752;49.992;8.422;2023-07-20T08:18:15;22.50;1.00
5459;DHT22;2752;49.992;8.422;2023-07-20T08:20:43;22.60;1.00
5459;DHT22;2752;49.992;8.422;2023-07-20T08:23:10;22.80;1.00
5459;DHT22;2752;49.992;8.422;2023-07-20T08:25:38;22.90;1.00
5459;DHT22;2752;49.992;8.422;2023-07-20T08:28:09;22.90;1.00
5459;DHT22;2752;49.992;8.422;2023-07-20T08:30:40;22.90;1.00
5459;DHT22;2752;49.992;8.422;2023-07-20T08:33:07;22.90;1.00
5459;DHT22;2752;49.992;8.422;2023-07-20T08:35:34;23.00;1.00
5459;DHT22;2752;49.992;8.422;2023-07-20T08:38:01;22.90;1.00
5459;DHT22;2752;49.992;8.422;2023-07-20T08:40:30;22.80;1.00
5459;DHT22;2752;49.992;8.422;2023-07-20T08:42:58;22.70;1.00
5459;DHT22;2752;49.992;8.422;2023-07-20T08:45:26;22.50;1.00
5459;DHT22;2752;49.992;8.422;2023-07-20T08:47:54;22.50;1.00
5459;DHT22;2752;49.992;8.422;2023-07-20T08:50:22;22.30;1.00
5459;DHT22;2752;49.992;8.422;2023-07-20T08:52:51;22.30;1.00
5459;DHT22;2752;49.992;8.422;2023-07-20T08:55:19;22.50;1.00
5459;DHT22;2752;49.992;8.422;2023-07-20T08:57:50;22.60;1.00
5459;DHT22;2752;49.992;8.422;2023-07-20T09:00:19;22.80;1.00
5459;DHT22;2752;49.992;8.422;2023-07-20T09:02:48;23.20;1.00
5459;DHT22;2752;49.992;8.422;2023-07-20T09:05:18;23.90;1.00
5459;DHT22;2752;49.992;8.422;2023-07-20T09:07:45;23.80;1.00
5459;DHT22;2752;49.992;8.422;2023-07-20T09:10:11;24.00;1.00
5459;DHT22;2752;49.992;8.422;2023-07-20T09:12:39;24.10;1.00
5459;DHT22;2752;49.992;8.422;2023-07-20T09:15:07;24.40;1.00
5459;DHT22;2752;49.992;8.422;2023-07-20T09:17:36;24.50;1.00
5459;DHT22;2752;49.992;8.422;2023-07-20T09:20:04;24.50;1.00
5459;DHT22;2752;49.992;8.422;2023-07-20T09:22:33;24.40;1.00
5459;DHT22;2752;49.992;8.422;2023-07-20T09:25:00;24.10;1.00
5459;DHT22;2752;49.992;8.422;2023-07-20T09:27:34;24.00;1.00
5459;DHT22;2752;49.992;8.422;2023-07-20T09:30:02;24.10;1.00
5459;DHT22;2752;49.992;8.422;2023-07-20T09:32:29;24.10;1.00
5459;DHT22;2752;49.992;8.422;2023-07-20T09:34:58;24.30;1.00
5459;DHT22;2752;49.992;8.422;2023-07-20T09:37:25;24.20;1.00
5459;DHT22;2752;49.992;8.422;2023-07-20T09:39:52;24.20;1.00
5459;DHT22;2752;49.992;8.422;2023-07-20T09:42:20;24.30;1.00
5459;DHT22;2752;49.992;8.422;2023-07-20T09:44:48;24.60;1.00
5459;DHT22;2752;49.992;8.422;2023-07-20T09:47:21;24.80;1.00
5459;DHT22;2752;49.992;8.422;2023-07-20T09:49:48;25.00;1.00
5459;DHT22;2752;49.992;8.422;2023-07-20T09:52:16;25.00;1.00
5459;DHT22;2752;49.992;8.422;2023-07-20T09:54:46;24.90;1.00
5459;DHT22;2752;49.992;8.422;2023-07-20T09:57:13;24.80;1.00
5459;DHT22;2752;49.992;8.422;2023-07-20T09:59:41;24.50;1.00
5459;DHT22;2752;49.992;8.422;2023-07-20T10:02:16;24.30;1.00
5459;DHT22;2752;49.992;8.422;2023-07-20T10:04:45;23.90;1.00
5459;DHT22;2752;49.992;8.422;2023-07-20T10:07:15;23.70;1.00
5459;DHT22;2752;49.992;8.422;2023-07-20T10:09:44;23.60;1.00
5459;DHT22;2752;49.992;8.422;2023-07-20T10:12:11;23.50;1.00
5459;DHT22;2752;49.992;8.422;2023-07-20T10:14:41;23.50;1.00
5459;DHT22;2752;49.992;8.422;2023-07-20T10:17:11;23.20;1.00
5459;DHT22;2752;49.992;8.422;2023-07-20T10:19:42;23.20;1.00
5459;DHT22;2752;49.992;8.422;2023-07-20T10:22:13;23.20;1.00
5459;DHT22;2752;49.992;8.422;2023-07-20T10:24:46;23.00;1.00
5459;DHT22;2752;49.992;8.422;2023-07-20T10:27:14;22.70;1.00
5459;DHT22;2752;49.992;8.422;2023-07-20T10:29:41;22.80;1.00
5459;DHT22;2752;49.992;8.422;2023-07-20T10:32:09;22.90;1.00
5459;DHT22;2752;49.992;8.422;2023-07-20T10:34:36;22.80;1.00
5459;DHT22;2752;49.992;8.422;2023-07-20T10:37:03;22.80;1.00
5459;DHT22;2752;49.992;8.422;2023-07-20T10:39:31;22.80;1.00
5459;DHT22;2752;49.992;8.422;2023-07-20T10:42:06;22.80;1.00
5459;DHT22;2752;49.992;8.422;2023-07-20T10:44:33;23.00;1.00
5459;DHT22;2752;49.992;8.422;2023-07-20T10:47:02;23.30;1.00
5459;DHT22;2752;49.992;8.422;2023-07-20T10:49:32;23.40;1.00
5459;DHT22;2752;49.992;8.422;2023-07-20T10:52:04;23.40;1.00
5459;DHT22;2752;49.992;8.422;2023-07-20T10:54:47;23.50;1.00
5459;DHT22;2752;49.992;8.422;2023-07-20T10:57:28;23.70;1.00
5459;DHT22;2752;49.992;8.422;2023-07-20T11:00:08;23.90;1.00
5459;DHT22;2752;49.992;8.422;2023-07-20T11:02:47;24.10;1.00
5459;DHT22;2752;49.992;8.422;2023-07-20T11:05:36;24.20;1.00
5459;DHT22;2752;49.992;8.422;2023-07-20T11:08:09;24.30;1.00
5459;DHT22;2752;49.992;8.422;2023-07-20T11:10:36;24.30;1.00
5459;DHT22;2752;49.992;8.422;2023-07-20T11:13:22;24.40;1.00
5459;DHT22;2752;49.992;8.422;2023-07-20T11:16:02;24.20;1.00
5459;DHT22;2752;49.992;8.422;2023-07-20T11:18:29;24.40;1.00
5459;DHT22;2752;49.992;8.422;2023-07-20T11:20:57;24.30;1.00
5459;DHT22;2752;49.992;8.422;2023-07-20T11:23:24;24.40;1.00
5459;DHT22;2752;49.992;8.422;2023-07-20T11:25:51;24.40;1.00
5459;DHT22;2752;49.992;8.422;2023-07-20T11:28:17;24.30;1.00
5459;DHT22;2752;49.992;8.422;2023-07-20T11:30:52;24.40;1.00
5459;DHT22;2752;49.992;8.422;2023-07-20T11:33:19;24.30;1.00
5459;DHT22;2752;49.992;8.422;2023-07-20T11:35:46;24.40;1.00
5459;DHT22;2752;49.992;8.422;2023-07-20T11:38:13;24.70;1.00
5459;DHT22;2752;49.992;8.422;2023-07-20T11:40:42;24.90;1.00
5459;DHT22;2752;49.992;8.422;2023-07-20T11:43:11;25.00;1.00
5459;DHT22;2752;49.992;8.422;2023-07-20T11:45:38;25.10;1.00
5459;DHT22;2752;49.992;8.422;2023-07-20T11:48:06;25.40;1.00
5459;DHT22;2752;49.992;8.422;2023-07-20T11:50:38;25.70;1.00
5459;DHT22;2752;49.992;8.422;2023-07-20T11:53:05;25.60;1.00
5459;DHT22;2752;49.992;8.422;2023-07-20T11:55:32;25.50;1.00
5459;DHT22;2752;49.992;8.422;2023-07-20T11:58:03;25.40;1.00
5459;DHT22;2752;49.992;8.422;2023-07-20T12:00:30;25.40;1.00
5459;DHT22;2752;49.992;8.422;2023-07-20T12:02:57;25.40;1.00
5459;DHT22;2752;49.992;8.422;2023-07-20T12:05:25;25.50;1.00
5459;DHT22;2752;49.992;8.422;2023-07-20T12:07:52;25.70;1.00
5459;DHT22;2752;49.992;8.422;2023-07-20T12:10:24;26.00;1.00
5459;DHT22;2752;49.992;8.422;2023-07-20T12:12:51;26.40;1.00
5459;DHT22;2752;49.992;8.422;2023-07-20T12:15:21;26.80;1.00
5459;DHT22;2752;49.992;8.422;2023-07-20T12:17:50;26.80;1.00
5459;DHT22;2752;49.992;8.422;2023-07-20T12:20:29;26.70;1.00
5459;DHT22;2752;49.992;8.422;2023-07-20T12:22:58;26.70;1.00
5459;DHT22;2752;49.992;8.422;2023-07-20T12:25:38;26.80;1.00
5459;DHT22;2752;49.992;8.422;2023-07-20T12:28:06;26.80;1.00
5459;DHT22;2752;49.992;8.422;2023-07-20T12:30:33;26.90;1.00
5459;DHT22;2752;49.992;8.422;2023-07-20T12:32:59;26.50;1.00
5459;DHT22;2752;49.992;8.422;2023-07-20T12:35:27;26.20;1.00
5459;DHT22;2752;49.992;8.422;2023-07-20T12:37:54;26.20;1.00
5459;DHT22;2752;49.992;8.422;2023-07-20T12:40:21;26.10;1.00
5459;DHT22;2752;49.992;8.422;2023-07-20T12:42:47;26.20;1.00
5459;DHT22;2752;49.992;8.422;2023-07-20T12:45:14;26.20;1.00
5459;DHT22;2752;49.992;8.422;2023-07-20T12:47:41;26.20;1.00
5459;DHT22;2752;49.992;8.422;2023-07-20T12:50:09;25.90;1.00
5459;DHT22;2752;49.992;8.422;2023-07-20T12:52:38;25.70;1.00
5459;DHT22;2752;49.992;8.422;2023-07-20T12:55:06;25.60;1.00
5459;DHT22;2752;49.992;8.422;2023-07-20T12:57:33;25.80;1.00
5459;DHT22;2752;49.992;8.422;2023-07-20T13:00:00;26.00;1.00
5459;DHT22;2752;49.992;8.422;2023-07-20T13:02:27;25.90;1.00
5459;DHT22;2752;49.992;8.422;2023-07-20T13:04:53;25.90;1.00
5459;DHT22;2752;49.992;8.422;2023-07-20T13:07:29;25.70;1.00
5459;DHT22;2752;49.992;8.422;2023-07-20T13:09:57;25.40;1.00
5459;DHT22;2752;49.992;8.422;2023-07-20T13:12:25;25.40;1.00
5459;DHT22;2752;49.992;8.422;2023-07-20T13:14:52;25.30;1.00
5459;DHT22;2752;49.992;8.422;2023-07-20T13:17:19;25.30;1.00
5459;DHT22;2752;49.992;8.422;2023-07-20T13:19:46;25.40;1.00
5459;DHT22;2752;49.992;8.422;2023-07-20T13:22:13;25.40;1.00
5459;DHT22;2752;49.992;8.422;2023-07-20T13:24:40;25.60;1.00
5459;DHT22;2752;49.992;8.422;2023-07-20T13:27:08;25.70;1.00
5459;DHT22;2752;49.992;8.422;2023-07-20T13:29:35;26.10;1.00
5459;DHT22;2752;49.992;8.422;2023-07-20T13:32:02;26.40;1.00
5459;DHT22;2752;49.992;8.422;2023-07-20T13:34:29;26.50;1.00
5459;DHT22;2752;49.992;8.422;2023-07-20T13:36:57;26.60;1.00
5459;DHT22;2752;49.992;8.422;2023-07-20T13:39:24;26.90;1.00
5459;DHT22;2752;49.992;8.422;2023-07-20T13:41:52;26.80;1.00
5459;DHT22;2752;49.992;8.422;2023-07-20T13:44:20;27.00;1.00
5459;DHT22;2752;49.992;8.422;2023-07-20T13:46:47;27.30;1.00
5459;DHT22;2752;49.992;8.422;2023-07-20T13:49:14;27.30;1.00
5459;DHT22;2752;49.992;8.422;2023-07-20T13:51:41;27.20;1.00
5459;DHT22;2752;49.992;8.422;2023-07-20T13:54:08;27.40;1.00
5459;DHT22;2752;49.992;8.422;2023-07-20T13:56:34;27.50;1.00
5459;DHT22;2752;49.992;8.422;2023-07-20T13:59:01;27.70;1.00
5459;DHT22;2752;49.992;8.422;2023-07-20T14:01:29;27.60;1.00
5459;DHT22;2752;49.992;8.422;2023-07-20T14:03:58;27.40;1.00
5459;DHT22;2752;49.992;8.422;2023-07-20T14:06:25;26.90;1.00
5459;DHT22;2752;49.992;8.422;2023-07-20T14:08:52;26.70;1.00
5459;DHT22;2752;49.992;8.422;2023-07-20T14:11:18;26.60;1.00
5459;DHT22;2752;49.992;8.422;2023-07-20T14:13:45;26.50;1.00
5459;DHT22;2752;49.992;8.422;2023-07-20T14:16:12;26.40;1.00
5459;DHT22;2752;49.992;8.422;2023-07-20T14:18:40;26.40;1.00
5459;DHT22;2752;49.992;8.422;2023-07-20T14:21:07;26.30;1.00
5459;DHT22;2752;49.992;8.422;2023-07-20T14:23:33;26.20;1.00
5459;DHT22;2752;49.992;8.422;2023-07-20T14:26:01;26.20;1.00
5459;DHT22;2752;49.992;8.422;2023-07-20T14:28:30;26.00;1.00
5459;DHT22;2752;49.992;8.422;2023-07-20T14:30:57;26.20;1.00
5459;DHT22;2752;49.992;8.422;2023-07-20T14:33:23;26.20;1.00
5459;DHT22;2752;49.992;8.422;2023-07-20T14:35:52;26.10;1.00
5459;DHT22;2752;49.992;8.422;2023-07-20T14:38:18;25.60;1.00
5459;DHT22;2752;49.992;8.422;2023-07-20T14:40:46;25.40;1.00
5459;DHT22;2752;49.992;8.422;2023-07-20T14:43:13;25.30;1.00
5459;DHT22;2752;49.992;8.422;2023-07-20T14:45:40;25.30;1.00
5459;DHT22;2752;49.992;8.422;2023-07-20T14:48:07;25.10;1.00
5459;DHT22;2752;49.992;8.422;2023-07-20T14:50:34;25.00;1.00
5459;DHT22;2752;49.992;8.422;2023-07-20T14:53:02;24.80;1.00
5459;DHT22;2752;49.992;8.422;2023-07-20T14:55:29;24.50;1.00
5459;DHT22;2752;49.992;8.422;2023-07-20T14:57:55;24.40;1.00
5459;DHT22;2752;49.992;8.422;2023-07-20T15:00:22;24.20;1.00
5459;DHT22;2752;49.992;8.422;2023-07-20T15:02:50;24.10;1.00
5459;DHT22;2752;49.992;8.422;2023-07-20T15:05:21;24.00;1.00
5459;DHT22;2752;49.992;8.422;2023-07-20T15:07:48;24.10;1.00
5459;DHT22;2752;49.992;8.422;2023-07-20T15:10:17;24.00;1.00
5459;DHT22;2752;49.992;8.422;2023-07-20T15:12:43;23.90;1.00
5459;DHT22;2752;49.992;8.422;2023-07-20T15:17:40;24.00;1.00
5459;DHT22;2752;49.992;8.422;2023-07-20T15:20:09;24.00;1.00
5459;DHT22;2752;49.992;8.422;2023-07-20T15:22:36;24.10;1.00
5459;DHT22;2752;49.992;8.422;2023-07-20T15:25:04;24.10;1.00
5459;DHT22;2752;49.992;8.422;2023-07-20T15:27:32;24.40;1.00
5459;DHT22;2752;49.992;8.422;2023-07-20T15:32:26;25.10;1.00
5459;DHT22;2752;49.992;8.422;2023-07-20T15:34:52;25.20;1.00
5459;DHT22;2752;49.992;8.422;2023-07-20T15:37:19;25.40;1.00
5459;DHT22;2752;49.992;8.422;2023-07-20T15:39:48;26.10;1.00
5459;DHT22;2752;49.992;8.422;2023-07-20T15:42:16;26.60;1.00
5459;DHT22;2752;49.992;8.422;2023-07-20T15:44:44;26.90;1.00
5459;DHT22;2752;49.992;8.422;2023-07-20T15:47:14;26.40;1.00
5459;DHT22;2752;49.992;8.422;2023-07-20T15:49:40;26.00;1.00
5459;DHT22;2752;49.992;8.422;2023-07-20T15:52:07;26.00;1.00
5459;DHT22;2752;49.992;8.422;2023-07-20T15:54:34;25.90;1.00
5459;DHT22;2752;49.992;8.422;2023-07-20T15:57:00;25.70;1.00
5459;DHT22;2752;49.992;8.422;2023-07-20T15:59:27;25.60;1.00
5459;DHT22;2752;49.992;8.422;2023-07-20T16:01:55;25.60;1.00
5459;DHT22;2752;49.992;8.422;2023-07-20T16:04:21;25.70;1.00
5459;DHT22;2752;49.992;8.422;2023-07-20T16:06:48;25.70;1.00
5459;DHT22;2752;49.992;8.422;2023-07-20T16:09:15;25.80;1.00
5459;DHT22;2752;49.992;8.422;2023-07-20T16:11:42;26.00;1.00
5459;DHT22;2752;49.992;8.422;2023-07-20T16:14:08;26.20;1.00
5459;DHT22;2752;49.992;8.422;2023-07-20T16:16:35;26.60;1.00
5459;DHT22;2752;49.992;8.422;2023-07-20T16:19:03;27.00;1.00
5459;DHT22;2752;49.992;8.422;2023-07-20T16:21:30;27.30;1.00
5459;DHT22;2752;49.992;8.422;2023-07-20T16:23:57;27.50;1.00
5459;DHT22;2752;49.992;8.422;2023-07-20T16:26:24;27.80;1.00